Time;durP1;ratioP1;P1;durP2;ratioP2;P2;SDS_P1;SDS_P2;PMS_P1;PMS_P2;Temp;Humidity;BMP_temperature;BMP_pressure;BME280_temperature;BME280_humidity;BME280_pressure;Samples;Min_cycle;Max_cycle;Signal;HPM_P1;HPM_P2
2023/06/26 00:01:20;;;;;;;7.10;4.28;;;28.80;99.90;;;;;;4949185;28;20043;-51
2023/06/26 00:03:46;;;;;;;6.88;3.83;;;28.80;99.90;;;;;;4950299;28;20039;-51
2023/06/26 00:06:12;;;;;;;6.90;3.67;;;28.80;99.90;;;;;;4951624;28;20030;-51
2023/06/26 00:08:38;;;;;;;5.35;4.03;;;28.70;99.90;;;;;;4950074;28;20023;-52
2023/06/26 00:11:04;;;;;;;8.88;4.10;;;28.70;99.90;;;;;;4951757;28;20031;-50
2023/06/26 00:13:30;;;;;;;5.43;3.70;;;28.70;99.90;;;;;;4951651;28;20029;-53
2023/06/26 00:15:56;;;;;;;8.27;4.28;;;28.70;99.90;;;;;;4948865;28;20038;-53
2023/06/26 00:18:23;;;;;;;6.00;4.28;;;28.70;99.90;;;;;;4953128;28;20035;-51
2023/06/26 00:20:49;;;;;;;5.32;4.15;;;28.70;99.90;;;;;;4949254;28;20033;-51
2023/06/26 00:23:16;;;;;;;5.35;3.97;;;28.70;99.90;;;;;;4967145;28;20156;-51
2023/06/26 00:25:42;;;;;;;;;;;28.70;99.90;;;;;;4951394;28;20492;-53
2023/06/26 00:28:08;;;;;;;4.95;3.92;;;28.60;99.90;;;;;;4948350;28;19948;-52
2023/06/26 00:30:34;;;;;;;5.43;3.83;;;28.60;99.90;;;;;;4952545;28;20034;-52
2023/06/26 00:32:59;;;;;;;5.05;4.10;;;28.60;99.90;;;;;;4948189;28;20034;-48
2023/06/26 00:35:25;;;;;;;4.63;3.75;;;28.60;99.90;;;;;;4949834;28;20040;-52
2023/06/26 00:37:51;;;;;;;5.53;3.95;;;28.60;99.90;;;;;;4950271;28;20039;-52
2023/06/26 00:40:17;;;;;;;4.75;3.80;;;28.60;99.90;;;;;;4950408;28;20244;-53
2023/06/26 00:42:42;;;;;;;5.75;3.80;;;28.60;99.90;;;;;;4958695;28;20063;-51
2023/06/26 00:45:08;;;;;;;6.43;4.07;;;28.60;99.90;;;;;;4955366;28;20160;-51
2023/06/26 00:47:34;;;;;;;5.15;3.38;;;28.60;99.90;;;;;;4949685;28;20042;-51
2023/06/26 00:50:00;;;;;;;5.60;3.75;;;28.60;99.90;;;;;;4951682;28;20032;-51
2023/06/26 00:52:26;;;;;;;5.50;3.83;;;28.60;99.90;;;;;;4962456;28;20388;-51
2023/06/26 00:54:52;;;;;;;4.80;3.50;;;28.50;99.90;;;;;;4951040;28;20031;-54
2023/06/26 00:57:18;;;;;;;5.80;3.40;;;28.60;99.90;;;;;;4949153;28;20023;-54
2023/06/26 00:59:44;;;;;;;5.13;4.05;;;28.50;99.90;;;;;;4950977;28;20063;-56
2023/06/26 01:02:10;;;;;;;6.57;3.65;;;28.60;99.90;;;;;;4950258;28;20114;-52
2023/06/26 01:04:36;;;;;;;4.95;3.60;;;28.50;99.90;;;;;;4951992;28;20027;-56
2023/06/26 01:07:03;;;;;;;7.07;3.85;;;28.60;99.90;;;;;;4946931;28;20470;-54
2023/06/26 01:09:30;;;;;;;7.07;3.78;;;28.60;99.90;;;;;;4952515;28;20020;-56
2023/06/26 01:11:56;;;;;;;3.15;2.85;;;28.50;99.90;;;;;;4949447;28;20023;-53
2023/06/26 01:14:23;;;;;;;5.32;4.30;;;28.60;99.90;;;;;;4946405;28;20029;-55
2023/06/26 01:16:50;;;;;;;5.20;3.85;;;28.60;99.90;;;;;;4964615;28;20027;-56
2023/06/26 01:19:28;;;;;;;4.88;3.60;;;28.60;99.90;;;;;;4941008;28;20051;-55
2023/06/26 01:22:14;;;;;;;4.18;3.70;;;28.50;99.90;;;;;;4933471;29;20055;-53
2023/06/26 01:24:45;;;;;;;6.15;3.67;;;28.60;99.90;;;;;;4940401;29;20534;-53
2023/06/26 01:27:12;;;;;;;6.57;4.07;;;28.60;99.90;;;;;;4939452;29;20031;-54
2023/06/26 01:29:39;;;;;;;6.07;3.50;;;28.50;99.90;;;;;;4934839;29;20019;-55
2023/06/26 01:32:05;;;;;;;6.40;4.38;;;28.60;99.90;;;;;;4934321;29;20039;-55
2023/06/26 01:34:31;;;;;;;5.82;4.10;;;28.50;99.90;;;;;;4934158;29;20075;-55
2023/06/26 01:36:57;;;;;;;7.03;3.75;;;28.50;99.90;;;;;;4934559;29;20031;-56
2023/06/26 01:39:22;;;;;;;7.57;4.03;;;28.50;99.90;;;;;;4937969;29;20027;-56
2023/06/26 01:41:49;;;;;;;6.95;4.30;;;28.60;99.90;;;;;;4938241;29;20035;-54
2023/06/26 01:44:32;;;;;;;5.25;4.30;;;28.50;99.90;;;;;;4951948;29;20566;-55
2023/06/26 01:47:03;;;;;;;4.97;4.00;;;28.50;99.90;;;;;;4934346;29;20480;-55
2023/06/26 01:49:40;;;;;;;5.88;4.43;;;28.50;99.90;;;;;;4934231;29;20063;-54
2023/06/26 01:52:21;;;;;;;6.25;4.50;;;28.50;99.90;;;;;;4934752;29;20114;-53
2023/06/26 01:54:53;;;;;;;11.95;7.88;;;28.50;99.90;;;;;;4934248;29;20064;-55
2023/06/26 01:57:19;;;;;;;16.13;10.18;;;28.50;99.90;;;;;;4934049;29;20024;-55
2023/06/26 01:59:48;;;;;;;12.65;8.60;;;28.50;99.90;;;;;;4934769;29;20079;-55
2023/06/26 02:02:14;;;;;;;10.38;7.25;;;28.50;99.90;;;;;;4937929;29;20040;-56
2023/06/26 02:04:41;;;;;;;9.73;6.00;;;28.50;99.90;;;;;;4937794;29;20028;-54
2023/06/26 02:07:06;;;;;;;9.27;6.97;;;28.50;99.90;;;;;;4937473;29;20023;-54
2023/06/26 02:09:32;;;;;;;9.88;6.68;;;28.50;99.90;;;;;;4946879;29;20268;-57
2023/06/26 02:11:58;;;;;;;4.97;4.43;;;28.50;99.90;;;;;;4940487;29;20472;-52
2023/06/26 02:14:24;;;;;;;5.70;4.75;;;28.50;99.90;;;;;;4936175;29;20023;-56
2023/06/26 02:16:49;;;;;;;6.68;4.68;;;28.50;99.90;;;;;;4937420;29;20051;-55
2023/06/26 02:19:21;;;;;;;4.55;3.38;;;28.50;99.90;;;;;;4937117;29;20499;-55
2023/06/26 02:21:50;;;;;;;4.97;3.85;;;28.50;99.90;;;;;;4936904;29;20027;-57
2023/06/26 02:24:16;;;;;;;4.75;4.00;;;28.40;99.90;;;;;;4936896;29;20495;-55
2023/06/26 02:26:42;;;;;;;4.32;3.30;;;28.40;99.90;;;;;;4937400;29;20028;-57
2023/06/26 02:29:07;;;;;;;7.22;3.97;;;28.40;99.90;;;;;;4936754;29;20024;-55
2023/06/26 02:31:33;;;;;;;4.50;3.60;;;28.40;99.90;;;;;;4937119;29;20028;-55
2023/06/26 02:33:59;;;;;;;6.00;3.95;;;28.30;99.90;;;;;;4936717;29;20032;-55
2023/06/26 02:36:24;;;;;;;5.18;3.58;;;28.30;99.90;;;;;;4934907;29;20489;-54
2023/06/26 02:38:50;;;;;;;5.18;3.50;;;28.30;99.90;;;;;;4936781;29;20036;-55
2023/06/26 02:41:16;;;;;;;7.35;3.53;;;28.30;99.90;;;;;;4936811;29;20044;-55
2023/06/26 02:43:42;;;;;;;6.93;3.80;;;28.30;99.90;;;;;;4937014;29;20044;-55
2023/06/26 02:46:07;;;;;;;4.43;3.60;;;28.30;99.90;;;;;;4937015;29;20028;-55
2023/06/26 02:48:33;;;;;;;8.77;4.35;;;28.30;99.90;;;;;;4936789;29;20039;-55
2023/06/26 02:50:59;;;;;;;4.15;3.30;;;28.30;99.90;;;;;;4950494;29;20115;-55
2023/06/26 02:53:24;;;;;;;5.05;3.90;;;28.30;99.90;;;;;;4948508;28;20058;-56
2023/06/26 02:55:50;;;;;;;7.95;4.50;;;28.30;99.90;;;;;;4936628;29;20492;-54
2023/06/26 02:58:16;;;;;;;4.78;3.60;;;28.40;99.90;;;;;;4936638;29;20047;-55
2023/06/26 03:00:42;;;;;;;4.75;3.75;;;28.30;99.90;;;;;;4937292;29;20472;-56
2023/06/26 03:03:09;;;;;;;5.10;3.60;;;28.40;99.90;;;;;;4935948;29;20047;-54
2023/06/26 03:05:34;;;;;;;6.40;3.55;;;28.40;99.90;;;;;;4942158;28;20114;-56
2023/06/26 03:08:00;;;;;;;3.97;3.38;;;28.30;99.90;;;;;;4936495;29;20110;-55
2023/06/26 03:10:26;;;;;;;5.90;3.38;;;28.40;99.90;;;;;;4936627;29;20035;-57
2023/06/26 03:12:52;;;;;;;4.85;3.67;;;28.40;99.90;;;;;;4935779;29;20354;-56
2023/06/26 03:15:19;;;;;;;6.60;3.72;;;28.40;99.90;;;;;;4936005;29;20027;-57
2023/06/26 03:17:45;;;;;;;7.65;4.32;;;28.40;99.90;;;;;;4936279;29;20174;-57
2023/06/26 03:20:10;;;;;;;5.00;3.60;;;28.40;99.90;;;;;;4936139;29;20512;-57
2023/06/26 03:22:36;;;;;;;7.75;3.63;;;28.40;99.90;;;;;;4936130;29;20036;-56
2023/06/26 03:25:03;;;;;;;6.10;3.58;;;28.40;99.90;;;;;;4936011;29;20024;-56
2023/06/26 03:27:29;;;;;;;6.50;3.87;;;28.40;99.90;;;;;;4936374;29;20030;-56
2023/06/26 03:29:54;;;;;;;4.85;3.75;;;28.40;99.90;;;;;;4947468;29;20265;-56
2023/06/26 03:32:20;;;;;;;4.75;3.60;;;28.50;99.90;;;;;;4936217;29;20024;-56
2023/06/26 03:34:46;;;;;;;5.18;3.67;;;28.50;99.90;;;;;;4936133;29;20032;-56
2023/06/26 03:37:12;;;;;;;5.53;3.50;;;28.50;99.90;;;;;;4942870;29;20451;-57
2023/06/26 03:39:37;;;;;;;5.07;4.15;;;28.50;99.90;;;;;;4935920;29;20035;-56
2023/06/26 03:42:03;;;;;;;4.68;3.80;;;28.50;99.90;;;;;;4935749;29;20051;-56
2023/06/26 03:44:29;;;;;;;5.45;4.20;;;28.50;99.90;;;;;;4935924;29;20479;-58
2023/06/26 03:46:55;;;;;;;6.15;4.35;;;28.50;99.90;;;;;;4935857;29;20383;-56
2023/06/26 03:49:21;;;;;;;4.45;3.80;;;28.50;99.90;;;;;;4935868;29;20511;-56
2023/06/26 03:51:46;;;;;;;5.13;4.03;;;28.50;99.90;;;;;;4945214;29;20032;-57
2023/06/26 03:54:12;;;;;;;6.53;3.90;;;28.50;99.90;;;;;;4953682;28;20024;-56
2023/06/26 03:56:38;;;;;;;8.48;4.75;;;28.50;99.90;;;;;;4935768;29;20035;-55
2023/06/26 03:59:04;;;;;;;6.05;3.95;;;28.50;99.90;;;;;;4947099;29;20027;-56
2023/06/26 04:01:29;;;;;;;6.55;3.90;;;28.40;99.90;;;;;;4935746;29;20484;-56
2023/06/26 04:03:55;;;;;;;5.47;3.75;;;28.40;99.90;;;;;;4935356;29;20030;-56
2023/06/26 04:06:21;;;;;;;5.10;3.85;;;28.40;99.90;;;;;;4934205;29;20020;-58
2023/06/26 04:08:47;;;;;;;6.78;3.30;;;28.40;99.90;;;;;;4935440;29;20032;-57
2023/06/26 04:11:13;;;;;;;8.90;3.80;;;28.40;99.90;;;;;;4940007;29;20122;-57
2023/06/26 04:13:39;;;;;;;5.93;3.60;;;28.40;99.90;;;;;;4950735;28;20106;-59
2023/06/26 04:16:06;;;;;;;6.28;3.67;;;28.30;99.90;;;;;;4935269;29;20023;-57
2023/06/26 04:18:32;;;;;;;5.65;3.13;;;28.40;99.90;;;;;;4935287;29;20019;-57
2023/06/26 04:21:07;;;;;;;3.60;3.28;;;28.30;99.90;;;;;;4943788;29;20086;-57
2023/06/26 04:23:33;;;;;;;5.10;3.33;;;28.40;99.90;;;;;;4938068;28;20083;-56
2023/06/26 04:25:59;;;;;;;8.98;3.42;;;28.30;99.90;;;;;;4935127;29;20095;-56
2023/06/26 04:28:25;;;;;;;5.40;3.90;;;28.40;99.90;;;;;;4934933;29;20031;-54
2023/06/26 04:30:51;;;;;;;4.28;3.25;;;28.40;99.90;;;;;;4935052;29;20028;-56
2023/06/26 04:33:16;;;;;;;5.03;4.15;;;28.30;99.90;;;;;;4935049;29;20028;-56
2023/06/26 04:35:48;;;;;;;5.07;3.72;;;28.30;99.90;;;;;;4935022;29;20049;-54
2023/06/26 04:38:15;;;;;;;5.85;3.40;;;28.30;99.90;;;;;;4935211;29;20476;-54
2023/06/26 04:40:41;;;;;;;4.28;3.47;;;28.30;99.90;;;;;;4935147;29;20382;-55
2023/06/26 04:43:07;;;;;;;7.40;3.60;;;28.30;99.90;;;;;;4934660;29;20043;-55
2023/06/26 04:45:33;;;;;;;5.75;3.20;;;28.30;99.90;;;;;;4935012;28;20094;-54
2023/06/26 04:48:00;;;;;;;3.88;3.08;;;28.30;99.90;;;;;;4934903;29;20032;-57
2023/06/26 04:50:25;;;;;;;7.55;3.60;;;28.30;99.90;;;;;;4934813;29;20461;-56
2023/06/26 04:52:51;;;;;;;8.07;4.47;;;28.40;99.90;;;;;;4934986;29;20038;-57
2023/06/26 04:55:17;;;;;;;4.63;3.58;;;28.40;99.90;;;;;;4934721;29;20524;-57
2023/06/26 04:57:43;;;;;;;4.88;3.45;;;28.30;99.90;;;;;;4934949;29;20056;-58
2023/06/26 05:00:10;;;;;;;5.32;4.05;;;28.40;99.90;;;;;;4934765;29;20484;-57
2023/06/26 05:02:36;;;;;;;7.97;3.90;;;28.40;99.90;;;;;;4934721;29;20392;-56
2023/06/26 05:05:02;;;;;;;5.25;3.78;;;28.40;99.90;;;;;;4933353;29;20032;-56
2023/06/26 05:07:28;;;;;;;9.52;4.65;;;28.40;99.90;;;;;;4934737;29;20075;-56
2023/06/26 05:09:53;;;;;;;8.20;4.03;;;28.40;99.90;;;;;;4934551;29;20047;-56
2023/06/26 05:12:19;;;;;;;6.85;4.25;;;28.40;99.90;;;;;;4934973;29;20114;-57
2023/06/26 05:14:46;;;;;;;11.65;4.20;;;28.50;99.90;;;;;;4934623;29;20416;-56
2023/06/26 05:17:14;;;;;;;8.23;4.60;;;28.40;99.90;;;;;;4934530;29;20027;-56
2023/06/26 05:19:40;;;;;;;8.27;5.20;;;28.50;99.90;;;;;;4934607;29;20112;-56
2023/06/26 05:22:07;;;;;;;7.28;4.55;;;28.50;99.90;;;;;;4934396;29;20035;-56
2023/06/26 05:24:38;;;;;;;8.90;5.18;;;28.50;99.90;;;;;;4934542;29;20031;-55
2023/06/26 05:27:04;;;;;;;7.30;5.28;;;28.50;99.90;;;;;;4947613;29;20040;-56
2023/06/26 05:29:31;;;;;;;7.95;5.53;;;28.50;99.90;;;;;;4945288;29;20499;-56
2023/06/26 05:31:57;;;;;;;10.90;6.10;;;28.50;99.90;;;;;;4936522;28;20436;-56
2023/06/26 05:34:24;;;;;;;14.73;6.82;;;28.50;99.90;;;;;;4934644;29;20028;-56
2023/06/26 05:36:51;;;;;;;12.83;6.07;;;28.40;99.90;;;;;;4938384;29;20024;-56
2023/06/26 05:39:17;;;;;;;;;;;28.50;99.90;;;;;;4938716;29;20020;-56
2023/06/26 05:41:44;;;;;;;14.18;7.18;;;28.50;99.90;;;;;;4937846;29;20013;-55
2023/06/26 05:44:10;;;;;;;10.07;6.25;;;28.50;99.90;;;;;;4937862;29;20051;-57
2023/06/26 05:46:36;;;;;;;10.95;7.22;;;28.50;99.90;;;;;;4937956;29;20059;-56
2023/06/26 05:49:02;;;;;;;15.98;7.20;;;28.50;99.90;;;;;;4938029;29;20723;-56
2023/06/26 05:51:29;;;;;;;13.68;7.55;;;28.50;99.90;;;;;;4937959;29;20028;-56
2023/06/26 05:53:55;;;;;;;18.85;7.57;;;28.50;99.90;;;;;;4950466;29;20032;-57
2023/06/26 05:56:21;;;;;;;23.30;7.60;;;28.50;99.90;;;;;;4938049;29;20031;-56
2023/06/26 05:58:47;;;;;;;11.50;7.55;;;28.50;99.90;;;;;;4937639;29;20087;-55
2023/06/26 06:01:13;;;;;;;13.60;6.03;;;28.40;99.90;;;;;;4937684;29;20035;-55
2023/06/26 06:03:40;;;;;;;9.77;5.47;;;28.50;99.90;;;;;;4937527;29;20035;-56
2023/06/26 06:06:06;;;;;;;12.80;6.50;;;28.50;99.90;;;;;;4937506;29;20019;-55
2023/06/26 06:08:31;;;;;;;8.77;5.50;;;28.50;99.90;;;;;;4937632;29;20031;-54
2023/06/26 06:10:59;;;;;;;10.90;6.45;;;28.50;99.90;;;;;;4937636;29;20024;-55
2023/06/26 06:13:25;;;;;;;8.35;5.38;;;28.50;99.90;;;;;;4937423;29;20047;-55
2023/06/26 06:15:51;;;;;;;14.68;5.85;;;28.50;99.90;;;;;;4946905;29;20464;-55
2023/06/26 06:18:17;;;;;;;8.57;4.80;;;28.50;99.90;;;;;;4940750;28;20091;-55
2023/06/26 06:20:42;;;;;;;7.00;4.93;;;28.50;99.90;;;;;;4937488;29;20119;-55
2023/06/26 06:23:08;;;;;;;9.40;5.50;;;28.50;99.90;;;;;;4937052;29;20144;-55
2023/06/26 06:25:34;;;;;;;8.52;5.57;;;28.50;99.90;;;;;;4937191;29;20023;-55
2023/06/26 06:28:00;;;;;;;6.72;4.85;;;28.50;99.90;;;;;;4937118;29;20036;-56
2023/06/26 06:30:26;;;;;;;5.88;4.18;;;28.50;99.90;;;;;;4937008;29;20110;-55
2023/06/26 06:32:53;;;;;;;9.00;5.18;;;28.50;99.90;;;;;;4937479;29;20031;-56
2023/06/26 06:35:19;;;;;;;6.38;4.60;;;28.50;99.90;;;;;;4936939;29;20036;-55
2023/06/26 06:37:44;;;;;;;10.90;5.47;;;28.50;99.90;;;;;;4936988;29;20510;-54
2023/06/26 06:40:11;;;;;;;9.82;4.75;;;28.60;99.90;;;;;;4936922;29;20027;-54
2023/06/26 06:42:37;;;;;;;6.23;4.40;;;28.50;99.90;;;;;;4935508;29;20052;-55
2023/06/26 06:45:04;;;;;;;7.55;3.92;;;28.60;99.90;;;;;;4936815;29;20042;-55
2023/06/26 06:47:30;;;;;;;7.13;3.80;;;28.60;99.90;;;;;;4935934;29;20074;-54
2023/06/26 06:49:56;;;;;;;9.07;4.00;;;28.60;99.90;;;;;;4936573;29;20028;-53
2023/06/26 06:52:22;;;;;;;7.22;3.88;;;28.60;99.90;;;;;;4936888;29;20357;-54
2023/06/26 06:54:52;;;;;;;8.82;4.18;;;28.60;99.90;;;;;;4949712;29;20428;-55
2023/06/26 06:57:19;;;;;;;6.93;4.57;;;28.60;99.90;;;;;;4936706;29;20416;-53
2023/06/26 06:59:45;;;;;;;6.20;4.25;;;28.60;99.90;;;;;;4935408;29;20380;-53
2023/06/26 07:02:11;;;;;;;8.68;4.25;;;28.60;99.90;;;;;;4942785;29;20039;-53
2023/06/26 07:04:37;;;;;;;5.75;4.22;;;28.60;99.90;;;;;;4942759;29;20028;-54
2023/06/26 07:07:03;;;;;;;7.00;4.50;;;28.60;99.90;;;;;;4936419;28;20063;-54
2023/06/26 07:09:28;;;;;;;6.13;3.88;;;28.60;99.90;;;;;;4947095;29;20034;-53
2023/06/26 07:11:54;;;;;;;9.10;3.72;;;28.70;99.90;;;;;;4952788;28;20432;-53
2023/06/26 07:14:20;;;;;;;8.65;4.63;;;28.70;99.90;;;;;;4945722;29;20083;-54
2023/06/26 07:16:45;;;;;;;12.15;5.00;;;28.60;99.90;;;;;;4939475;29;20028;-55
2023/06/26 07:19:11;;;;;;;6.18;4.80;;;28.70;99.90;;;;;;4944055;29;20034;-54
2023/06/26 07:21:37;;;;;;;7.82;4.43;;;28.70;99.90;;;;;;4941331;28;20488;-55
2023/06/26 07:24:03;;;;;;;6.10;4.18;;;28.70;99.90;;;;;;4942662;29;20031;-56
2023/06/26 07:26:28;;;;;;;8.65;4.45;;;28.70;99.90;;;;;;4942736;28;20054;-55
2023/06/26 07:28:56;;;;;;;5.70;3.90;;;28.70;99.90;;;;;;4936281;28;20373;-55
2023/06/26 07:31:22;;;;;;;6.10;4.28;;;28.70;99.90;;;;;;4936028;29;20099;-55
2023/06/26 07:33:48;;;;;;;6.50;4.55;;;28.80;99.90;;;;;;4948528;29;20123;-55
2023/06/26 07:36:13;;;;;;;6.72;4.75;;;28.70;99.90;;;;;;4935943;29;20031;-55
2023/06/26 07:38:39;;;;;;;5.60;4.05;;;28.70;99.90;;;;;;4935726;29;20497;-55
2023/06/26 07:41:05;;;;;;;6.35;3.90;;;28.80;99.90;;;;;;4935767;29;20028;-57
2023/06/26 07:43:31;;;;;;;8.80;3.97;;;28.80;99.90;;;;;;4934199;29;20048;-54
2023/06/26 07:45:58;;;;;;;8.27;4.68;;;28.80;99.90;;;;;;4943125;29;20073;-53
2023/06/26 07:48:24;;;;;;;;;;;28.80;99.90;;;;;;4940472;28;20038;-54
2023/06/26 07:50:50;;;;;;;9.07;4.65;;;28.80;99.90;;;;;;4943068;29;19907;-53
2023/06/26 07:53:16;;;;;;;7.07;3.92;;;28.80;99.90;;;;;;4941132;28;20042;-54
2023/06/26 07:55:42;;;;;;;6.65;4.45;;;28.80;99.90;;;;;;4935554;29;20047;-54
2023/06/26 07:58:08;;;;;;;6.15;4.13;;;28.80;99.90;;;;;;4945158;28;20484;-54
2023/06/26 08:00:34;;;;;;;6.15;3.85;;;28.80;99.90;;;;;;4950003;28;20087;-54
2023/06/26 08:03:00;;;;;;;5.82;4.30;;;28.90;99.90;;;;;;4945501;29;20035;-54
2023/06/26 08:05:25;;;;;;;6.85;4.20;;;28.90;99.90;;;;;;4951391;29;20026;-55
2023/06/26 08:07:51;;;;;;;7.88;4.25;;;28.90;99.90;;;;;;4935238;29;20484;-54
2023/06/26 08:10:18;;;;;;;10.05;4.60;;;29.00;99.90;;;;;;4936937;29;20139;-54
2023/06/26 08:12:45;;;;;;;9.88;4.82;;;28.90;99.90;;;;;;4945102;28;20099;-54
2023/06/26 08:15:11;;;;;;;17.85;5.05;;;28.90;99.90;;;;;;4935592;29;20369;-54
2023/06/26 08:17:38;;;;;;;12.13;5.15;;;29.00;99.90;;;;;;4935190;29;20373;-53
2023/06/26 08:20:04;;;;;;;8.82;4.82;;;29.00;99.90;;;;;;4935114;29;20131;-53
2023/06/26 08:22:30;;;;;;;7.00;4.33;;;29.00;99.90;;;;;;4935112;29;20035;-54
2023/06/26 08:24:56;;;;;;;7.25;4.75;;;29.00;99.90;;;;;;4935213;29;20042;-55
2023/06/26 08:27:22;;;;;;;7.53;4.50;;;29.00;99.90;;;;;;4935083;29;20032;-55
2023/06/26 08:29:48;;;;;;;10.95;4.38;;;29.00;99.90;;;;;;4934957;29;20027;-55
2023/06/26 08:32:14;;;;;;;6.78;4.15;;;29.00;99.90;;;;;;4934939;29;20465;-55
2023/06/26 08:34:40;;;;;;;6.70;4.40;;;29.00;99.90;;;;;;4934980;29;20031;-55
2023/06/26 08:37:08;;;;;;;8.02;4.25;;;29.00;99.90;;;;;;4947547;29;20806;-54
2023/06/26 08:39:34;;;;;;;6.85;4.22;;;29.10;99.90;;;;;;4934962;29;20020;-55
2023/06/26 08:42:00;;;;;;;5.00;4.25;;;29.10;99.90;;;;;;4934876;29;20039;-54
2023/06/26 08:44:26;;;;;;;4.95;4.10;;;29.10;99.90;;;;;;4941072;29;20031;-55
2023/06/26 08:46:52;;;;;;;6.50;3.97;;;29.10;99.90;;;;;;4953919;28;20400;-55
2023/06/26 08:49:22;;;;;;;15.45;4.70;;;29.10;99.90;;;;;;4947983;28;20103;-55
2023/06/26 08:52:06;;;;;;;7.72;4.40;;;29.10;99.90;;;;;;4934771;29;20444;-55
2023/06/26 08:54:38;;;;;;;5.63;3.95;;;29.10;99.90;;;;;;4935096;29;20374;-55
2023/06/26 08:57:05;;;;;;;8.57;3.95;;;29.10;99.90;;;;;;4934605;29;20087;-55
2023/06/26 08:59:32;;;;;;;5.68;4.40;;;29.20;99.90;;;;;;4934897;29;20028;-55
2023/06/26 09:01:57;;;;;;;8.00;4.75;;;29.20;99.90;;;;;;4933535;29;20050;-55
2023/06/26 09:04:24;;;;;;;5.07;4.18;;;29.20;99.90;;;;;;4941742;29;20024;-55
2023/06/26 09:06:49;;;;;;;4.93;4.30;;;29.20;99.90;;;;;;4940378;28;20115;-55
2023/06/26 09:09:15;;;;;;;7.15;4.68;;;29.20;99.90;;;;;;4934616;29;20098;-55
2023/06/26 09:11:41;;;;;;;6.18;5.25;;;29.20;99.90;;;;;;4938426;29;20443;-56
2023/06/26 09:14:10;;;;;;;5.75;4.53;;;29.20;99.90;;;;;;4938625;29;20028;-55
2023/06/26 09:16:42;;;;;;;6.55;4.22;;;29.20;99.90;;;;;;4951199;29;20020;-56
2023/06/26 09:19:12;;;;;;;5.70;4.68;;;29.20;99.90;;;;;;4945803;29;20027;-55
2023/06/26 09:21:42;;;;;;;8.60;3.78;;;29.30;99.90;;;;;;4956250;29;20031;-55
2023/06/26 09:24:09;;;;;;;5.05;3.75;;;29.30;99.90;;;;;;4950364;28;20028;-55
2023/06/26 09:26:36;;;;;;;9.55;4.00;;;29.40;99.90;;;;;;4949779;29;20038;-55
2023/06/26 09:29:04;;;;;;;5.28;3.38;;;29.30;99.90;;;;;;4938504;29;20031;-56
2023/06/26 09:31:30;;;;;;;5.93;4.68;;;29.40;99.90;;;;;;4951121;29;20030;-55
2023/06/26 09:33:59;;;;;;;6.68;4.10;;;29.40;99.90;;;;;;4938301;28;20028;-55
2023/06/26 09:36:29;;;;;;;5.40;4.35;;;29.40;99.90;;;;;;4938198;29;20024;-56
2023/06/26 09:38:55;;;;;;;4.93;4.03;;;29.40;99.90;;;;;;4950670;29;20032;-55
2023/06/26 09:41:20;;;;;;;5.65;3.90;;;29.40;99.90;;;;;;4938187;29;20032;-55
2023/06/26 09:43:51;;;;;;;4.78;3.65;;;29.40;99.90;;;;;;4937747;29;20546;-55
2023/06/26 09:46:27;;;;;;;5.82;3.88;;;29.40;99.90;;;;;;4937931;29;20508;-56
2023/06/26 09:49:08;;;;;;;4.63;4.10;;;29.40;99.90;;;;;;4957090;28;20071;-55
2023/06/26 09:51:35;;;;;;;5.80;3.90;;;29.40;99.90;;;;;;4943189;28;20274;-54
2023/06/26 09:54:02;;;;;;;6.93;4.25;;;29.50;99.90;;;;;;4937806;29;20012;-55
2023/06/26 09:56:29;;;;;;;6.25;4.00;;;29.50;99.90;;;;;;4937784;29;20350;-55
2023/06/26 09:59:00;;;;;;;7.95;4.30;;;29.50;99.90;;;;;;4950410;29;20027;-57
2023/06/26 10:01:27;;;;;;;7.10;3.70;;;29.50;99.90;;;;;;4937684;29;20031;-56
2023/06/26 10:03:53;;;;;;;5.88;3.80;;;29.50;99.90;;;;;;4937666;29;20039;-57
2023/06/26 10:06:42;;;;;;;5.22;3.97;;;29.50;99.90;;;;;;4937596;29;20055;-55
2023/06/26 10:09:09;;;;;;;5.47;3.20;;;29.50;99.90;;;;;;4936907;29;20040;-54
2023/06/26 10:11:46;;;;;;;7.97;3.47;;;29.50;99.90;;;;;;4937693;29;20034;-57
2023/06/26 10:14:13;;;;;;;5.32;3.78;;;29.60;99.90;;;;;;4937376;29;20619;-56
2023/06/26 10:16:44;;;;;;;5.97;4.32;;;29.60;99.90;;;;;;4936179;29;20043;-55
2023/06/26 10:19:11;;;;;;;7.90;3.70;;;29.60;99.90;;;;;;4937185;29;20019;-56
2023/06/26 10:21:38;;;;;;;8.70;4.05;;;29.60;99.90;;;;;;4938771;29;20035;-56
2023/06/26 10:24:06;;;;;;;4.97;4.13;;;29.60;99.90;;;;;;4949400;29;20036;-55
2023/06/26 10:26:33;;;;;;;;;;;29.60;99.90;;;;;;4957142;28;20029;-56
2023/06/26 10:29:00;;;;;;;5.95;3.70;;;29.60;99.90;;;;;;4956229;28;19906;-56
2023/06/26 10:31:28;;;;;;;8.03;3.83;;;29.70;99.90;;;;;;4956453;28;20026;-56
2023/06/26 10:33:54;;;;;;;10.95;4.72;;;29.70;99.90;;;;;;4956325;28;20058;-56
2023/06/26 10:36:28;;;;;;;7.90;3.50;;;29.70;99.90;;;;;;4943383;28;20023;-56
2023/06/26 10:39:06;;;;;;;13.07;6.82;;;29.70;99.90;;;;;;4964277;28;20510;-55
2023/06/26 10:41:42;;;;;;;7.75;3.53;;;29.70;99.90;;;;;;4951556;28;20122;-54
2023/06/26 10:44:16;;;;;;;6.60;4.22;;;29.70;99.90;;;;;;4964327;28;20525;-56
2023/06/26 10:46:58;;;;;;;5.53;4.70;;;29.70;99.90;;;;;;4949451;28;20082;-54
2023/06/26 10:49:29;;;;;;;7.15;4.00;;;29.70;99.90;;;;;;4933390;28;20039;-54
2023/06/26 10:52:00;;;;;;;7.25;4.28;;;29.70;99.90;;;;;;4949011;28;20435;-55
2023/06/26 10:54:32;;;;;;;5.15;4.28;;;29.80;99.90;;;;;;4954920;28;20087;-54
2023/06/26 10:56:58;;;;;;;6.30;4.40;;;29.80;99.90;;;;;;4948679;28;20070;-56
2023/06/26 10:59:26;;;;;;;8.80;5.55;;;29.80;99.90;;;;;;4950922;28;20035;-54
2023/06/26 11:01:58;;;;;;;5.88;4.47;;;29.90;99.90;;;;;;4950436;28;20039;-53
2023/06/26 11:04:42;;;;;;;6.82;4.03;;;29.80;99.90;;;;;;4951223;28;20027;-55
2023/06/26 11:07:16;;;;;;;6.95;4.05;;;29.80;99.90;;;;;;4951517;28;20037;-53
2023/06/26 11:10:04;;;;;;;6.75;4.03;;;29.90;99.90;;;;;;4958073;28;20414;-54
2023/06/26 11:12:44;;;;;;;7.05;4.35;;;29.90;99.90;;;;;;4952301;28;20126;-53
2023/06/26 11:15:12;;;;;;;8.07;4.68;;;29.90;99.90;;;;;;4962519;28;20034;-54
2023/06/26 11:17:39;;;;;;;7.78;4.55;;;29.90;99.90;;;;;;4952979;28;20077;-52
2023/06/26 11:20:10;;;;;;;6.60;5.18;;;30.00;99.90;;;;;;4955121;28;20092;-53
2023/06/26 11:22:37;;;;;;;9.13;4.43;;;30.00;99.90;;;;;;4967890;28;20047;-53
2023/06/26 11:25:04;;;;;;;5.95;3.63;;;30.00;99.90;;;;;;4969763;28;20035;-54
2023/06/26 11:27:41;;;;;;;8.65;4.50;;;30.10;99.90;;;;;;4951731;28;20379;-54
2023/06/26 11:30:11;;;;;;;7.03;4.03;;;30.10;99.90;;;;;;4949955;28;20027;-55
2023/06/26 11:32:38;;;;;;;9.23;5.10;;;30.20;99.90;;;;;;4951282;28;20020;-54
2023/06/26 11:35:05;;;;;;;8.55;4.15;;;30.20;99.90;;;;;;4946831;28;20032;-54
2023/06/26 11:37:32;;;;;;;8.85;3.90;;;30.20;99.90;;;;;;4933965;29;20155;-57
2023/06/26 11:39:58;;;;;;;4.32;3.58;;;30.30;99.90;;;;;;4935871;29;20031;-57
2023/06/26 11:42:27;;;;;;;6.05;4.57;;;30.30;99.90;;;;;;4935511;29;20048;-55
2023/06/26 11:44:54;;;;;;;6.13;4.25;;;30.30;99.90;;;;;;4935972;29;20496;-58
2023/06/26 11:47:20;;;;;;;6.77;5.33;;;30.30;99.90;;;;;;4935486;29;20380;-55
2023/06/26 11:49:48;;;;;;;12.18;7.78;;;30.40;99.90;;;;;;4935567;29;20038;-56
2023/06/26 11:52:15;;;;;;;6.07;4.82;;;30.40;99.90;;;;;;4934452;29;20036;-56
2023/06/26 11:54:42;;;;;;;13.18;6.85;;;30.40;99.90;;;;;;4935433;29;20106;-56
2023/06/26 11:57:08;;;;;;;11.25;5.93;;;30.40;99.90;;;;;;4947177;29;20031;-56
2023/06/26 11:59:36;;;;;;;11.48;6.93;;;30.50;99.90;;;;;;4935701;29;20181;-59
2023/06/26 12:02:08;;;;;;;5.80;4.75;;;30.50;99.90;;;;;;4935705;29;20114;-59
2023/06/26 12:04:41;;;;;;;8.02;5.22;;;30.50;99.90;;;;;;4935413;29;20063;-60
2023/06/26 12:07:09;;;;;;;5.60;4.45;;;30.50;99.90;;;;;;4935677;29;20083;-58
2023/06/26 12:09:43;;;;;;;10.85;5.28;;;30.50;99.90;;;;;;4935195;29;20028;-56
2023/06/26 12:12:10;;;;;;;6.07;4.45;;;30.60;99.90;;;;;;4935520;29;20434;-57
2023/06/26 12:14:37;;;;;;;10.52;5.00;;;30.60;99.90;;;;;;4944288;29;20019;-56
2023/06/26 12:17:12;;;;;;;7.37;4.67;;;30.60;99.90;;;;;;4937413;28;20559;-60
2023/06/26 12:19:39;;;;;;;8.98;4.22;;;30.60;99.90;;;;;;4941364;29;20066;-57
2023/06/26 12:22:08;;;;;;;5.85;4.40;;;30.70;99.90;;;;;;4935891;28;20122;-59
2023/06/26 12:24:38;;;;;;;7.13;4.07;;;30.70;99.90;;;;;;4934142;29;20063;-59
2023/06/26 12:27:09;;;;;;;6.43;3.92;;;30.80;99.90;;;;;;4936226;29;20027;-57
2023/06/26 12:29:36;;;;;;;5.70;3.53;;;30.80;99.90;;;;;;4940444;28;20028;-59
2023/06/26 12:32:02;;;;;;;5.43;4.35;;;30.80;99.90;;;;;;4935091;29;20140;-57
2023/06/26 12:34:33;;;;;;;7.57;4.30;;;30.80;99.90;;;;;;4935145;29;20040;-58
2023/06/26 12:37:10;;;;;;;7.35;4.25;;;30.80;99.90;;;;;;4934980;29;20074;-57
2023/06/26 12:39:53;;;;;;;4.45;3.67;;;30.90;99.90;;;;;;4935048;29;20354;-57
2023/06/26 12:42:27;;;;;;;5.97;4.60;;;30.90;99.90;;;;;;4943356;29;20035;-57
2023/06/26 12:44:56;;;;;;;9.90;4.53;;;31.00;99.90;;;;;;4939688;28;20030;-56
2023/06/26 12:47:31;;;;;;;5.72;4.15;;;31.00;99.90;;;;;;4937482;29;20193;-57